sensor_id;sensor_type;location;lat;lon;timestamp;temperature;humidity
10336;DHT22;5213;53.548;9.930;2023-11-19T00:00:40;5.40;99.90
10336;DHT22;5213;53.548;9.930;2023-11-19T00:03:06;5.30;99.90
10336;DHT22;5213;53.548;9.930;2023-11-19T00:05:32;5.40;99.90
10336;DHT22;5213;53.548;9.930;2023-11-19T00:07:57;5.40;99.90
10336;DHT22;5213;53.548;9.930;2023-11-19T00:10:23;5.30;99.90
10336;DHT22;5213;53.548;9.930;2023-11-19T00:12:49;5.40;99.90
10336;DHT22;5213;53.548;9.930;2023-11-19T00:15:16;5.40;99.90
10336;DHT22;5213;53.548;9.930;2023-11-19T00:17:45;5.40;99.90
10336;DHT22;5213;53.548;9.930;2023-11-19T00:20:12;5.40;99.90
10336;DHT22;5213;53.548;9.930;2023-11-19T00:22:37;5.40;99.90
10336;DHT22;5213;53.548;9.930;2023-11-19T00:25:04;5.40;99.90
10336;DHT22;5213;53.548;9.930;2023-11-19T00:27:30;5.40;99.90
10336;DHT22;5213;53.548;9.930;2023-11-19T00:29:56;5.40;99.90
10336;DHT22;5213;53.548;9.930;2023-11-19T00:32:22;5.40;99.90
10336;DHT22;5213;53.548;9.930;2023-11-19T00:34:48;5.50;99.90
10336;DHT22;5213;53.548;9.930;2023-11-19T00:37:14;5.50;99.90
10336;DHT22;5213;53.548;9.930;2023-11-19T00:39:43;5.50;99.90
10336;DHT22;5213;53.548;9.930;2023-11-19T00:42:09;5.50;99.90
10336;DHT22;5213;53.548;9.930;2023-11-19T00:44:39;5.40;99.90
10336;DHT22;5213;53.548;9.930;2023-11-19T00:47:04;5.40;99.90
10336;DHT22;5213;53.548;9.930;2023-11-19T00:49:31;5.40;99.90
10336;DHT22;5213;53.548;9.930;2023-11-19T00:52:00;5.40;99.90
10336;DHT22;5213;53.548;9.930;2023-11-19T00:54:27;5.50;99.90
10336;DHT22;5213;53.548;9.930;2023-11-19T00:56:53;5.30;99.90
10336;DHT22;5213;53.548;9.930;2023-11-19T00:59:19;5.40;99.90
10336;DHT22;5213;53.548;9.930;2023-11-19T01:01:47;5.40;99.90
10336;DHT22;5213;53.548;9.930;2023-11-19T01:04:18;5.50;99.90
10336;DHT22;5213;53.548;9.930;2023-11-19T01:06:44;5.50;99.90
10336;DHT22;5213;53.548;9.930;2023-11-19T01:09:10;5.50;99.90
10336;DHT22;5213;53.548;9.930;2023-11-19T01:11:36;5.50;99.90
10336;DHT22;5213;53.548;9.930;2023-11-19T01:14:01;5.50;99.90
10336;DHT22;5213;53.548;9.930;2023-11-19T01:16:27;5.10;99.90
10336;DHT22;5213;53.548;9.930;2023-11-19T01:18:53;5.50;99.90
10336;DHT22;5213;53.548;9.930;2023-11-19T01:21:18;5.50;99.90
10336;DHT22;5213;53.548;9.930;2023-11-19T01:23:44;5.50;99.90
10336;DHT22;5213;53.548;9.930;2023-11-19T01:26:11;5.50;99.90
10336;DHT22;5213;53.548;9.930;2023-11-19T01:28:38;5.60;99.90
10336;DHT22;5213;53.548;9.930;2023-11-19T01:31:06;5.50;99.90
10336;DHT22;5213;53.548;9.930;2023-11-19T01:33:36;5.60;99.90
10336;DHT22;5213;53.548;9.930;2023-11-19T01:36:02;5.60;99.90
10336;DHT22;5213;53.548;9.930;2023-11-19T01:38:28;5.60;99.90
10336;DHT22;5213;53.548;9.930;2023-11-19T01:40:57;5.40;99.90
10336;DHT22;5213;53.548;9.930;2023-11-19T01:43:39;5.60;99.90
10336;DHT22;5213;53.548;9.930;2023-11-19T01:46:07;5.60;99.90
10336;DHT22;5213;53.548;9.930;2023-11-19T01:48:36;5.60;99.90
10336;DHT22;5213;53.548;9.930;2023-11-19T01:51:05;5.60;99.90
10336;DHT22;5213;53.548;9.930;2023-11-19T01:53:32;5.60;99.90
10336;DHT22;5213;53.548;9.930;2023-11-19T01:55:59;5.60;99.90
10336;DHT22;5213;53.548;9.930;2023-11-19T01:58:25;5.60;99.90
10336;DHT22;5213;53.548;9.930;2023-11-19T02:00:51;5.70;99.90
10336;DHT22;5213;53.548;9.930;2023-11-19T02:03:17;5.70;99.90
10336;DHT22;5213;53.548;9.930;2023-11-19T02:05:43;5.70;99.90
10336;DHT22;5213;53.548;9.930;2023-11-19T02:08:08;5.70;99.90
10336;DHT22;5213;53.548;9.930;2023-11-19T02:10:34;5.70;99.90
10336;DHT22;5213;53.548;9.930;2023-11-19T02:13:01;5.70;99.90
10336;DHT22;5213;53.548;9.930;2023-11-19T02:15:26;5.70;99.90
10336;DHT22;5213;53.548;9.930;2023-11-19T02:17:52;5.70;99.90
10336;DHT22;5213;53.548;9.930;2023-11-19T02:20:18;5.70;99.90
10336;DHT22;5213;53.548;9.930;2023-11-19T02:22:48;5.70;99.90
10336;DHT22;5213;53.548;9.930;2023-11-19T02:25:30;5.80;99.90
10336;DHT22;5213;53.548;9.930;2023-11-19T02:28:01;5.80;99.90
10336;DHT22;5213;53.548;9.930;2023-11-19T02:30:27;5.80;99.90
10336;DHT22;5213;53.548;9.930;2023-11-19T02:32:55;5.80;99.90
10336;DHT22;5213;53.548;9.930;2023-11-19T02:35:23;5.80;99.90
10336;DHT22;5213;53.548;9.930;2023-11-19T02:37:49;5.80;99.90
10336;DHT22;5213;53.548;9.930;2023-11-19T02:40:14;5.80;99.90
10336;DHT22;5213;53.548;9.930;2023-11-19T02:42:40;5.80;99.90
10336;DHT22;5213;53.548;9.930;2023-11-19T02:45:06;5.80;99.90
10336;DHT22;5213;53.548;9.930;2023-11-19T02:47:33;5.80;99.90
10336;DHT22;5213;53.548;9.930;2023-11-19T02:49:59;5.80;99.90
10336;DHT22;5213;53.548;9.930;2023-11-19T02:52:25;5.80;99.90
10336;DHT22;5213;53.548;9.930;2023-11-19T02:54:51;5.90;99.90
10336;DHT22;5213;53.548;9.930;2023-11-19T02:57:16;5.90;99.90
10336;DHT22;5213;53.548;9.930;2023-11-19T02:59:44;5.90;99.90
10336;DHT22;5213;53.548;9.930;2023-11-19T03:02:10;6.00;99.90
10336;DHT22;5213;53.548;9.930;2023-11-19T03:04:37;6.00;99.90
10336;DHT22;5213;53.548;9.930;2023-11-19T03:07:08;6.00;99.90
10336;DHT22;5213;53.548;9.930;2023-11-19T03:09:33;6.10;99.90
10336;DHT22;5213;53.548;9.930;2023-11-19T03:12:01;6.10;99.90
10336;DHT22;5213;53.548;9.930;2023-11-19T03:14:27;6.10;99.90
10336;DHT22;5213;53.548;9.930;2023-11-19T03:16:53;6.20;99.90
10336;DHT22;5213;53.548;9.930;2023-11-19T03:19:18;6.30;99.90
10336;DHT22;5213;53.548;9.930;2023-11-19T03:21:44;6.20;99.90
10336;DHT22;5213;53.548;9.930;2023-11-19T03:24:12;6.30;99.90
10336;DHT22;5213;53.548;9.930;2023-11-19T03:26:38;6.40;99.90
10336;DHT22;5213;53.548;9.930;2023-11-19T03:29:03;6.40;99.90
10336;DHT22;5213;53.548;9.930;2023-11-19T03:31:29;6.40;99.90
10336;DHT22;5213;53.548;9.930;2023-11-19T03:33:55;6.40;99.90
10336;DHT22;5213;53.548;9.930;2023-11-19T03:36:20;6.40;99.90
10336;DHT22;5213;53.548;9.930;2023-11-19T03:38:46;6.50;99.90
10336;DHT22;5213;53.548;9.930;2023-11-19T03:41:12;6.50;99.90
10336;DHT22;5213;53.548;9.930;2023-11-19T03:43:39;6.50;99.90
10336;DHT22;5213;53.548;9.930;2023-11-19T03:46:15;6.50;99.90
10336;DHT22;5213;53.548;9.930;2023-11-19T03:48:41;6.50;99.90
10336;DHT22;5213;53.548;9.930;2023-11-19T03:51:06;6.50;99.90
10336;DHT22;5213;53.548;9.930;2023-11-19T03:53:32;6.60;99.90
10336;DHT22;5213;53.548;9.930;2023-11-19T03:55:57;6.60;99.90
10336;DHT22;5213;53.548;9.930;2023-11-19T03:58:24;6.60;99.90
10336;DHT22;5213;53.548;9.930;2023-11-19T04:00:49;6.60;99.90
10336;DHT22;5213;53.548;9.930;2023-11-19T04:03:15;6.60;99.90
10336;DHT22;5213;53.548;9.930;2023-11-19T04:05:40;6.70;99.90
10336;DHT22;5213;53.548;9.930;2023-11-19T04:08:06;6.70;99.90
10336;DHT22;5213;53.548;9.930;2023-11-19T04:10:32;6.60;99.90
10336;DHT22;5213;53.548;9.930;2023-11-19T04:12:57;6.60;99.90
10336;DHT22;5213;53.548;9.930;2023-11-19T04:15:23;6.60;99.90
10336;DHT22;5213;53.548;9.930;2023-11-19T04:17:49;6.60;99.90
10336;DHT22;5213;53.548;9.930;2023-11-19T04:20:15;6.60;99.90
10336;DHT22;5213;53.548;9.930;2023-11-19T04:22:41;6.80;99.90
10336;DHT22;5213;53.548;9.930;2023-11-19T04:25:07;6.70;99.90
10336;DHT22;5213;53.548;9.930;2023-11-19T04:27:32;6.70;99.90
10336;DHT22;5213;53.548;9.930;2023-11-19T04:29:58;6.60;99.90
10336;DHT22;5213;53.548;9.930;2023-11-19T04:32:25;6.70;99.90
10336;DHT22;5213;53.548;9.930;2023-11-19T04:34:52;6.70;99.90
10336;DHT22;5213;53.548;9.930;2023-11-19T04:37:17;6.80;99.90
10336;DHT22;5213;53.548;9.930;2023-11-19T04:39:44;6.80;99.90
10336;DHT22;5213;53.548;9.930;2023-11-19T04:42:11;6.80;99.90
10336;DHT22;5213;53.548;9.930;2023-11-19T04:44:37;6.80;99.90
10336;DHT22;5213;53.548;9.930;2023-11-19T04:47:03;6.80;99.90
10336;DHT22;5213;53.548;9.930;2023-11-19T04:49:29;6.90;99.90
10336;DHT22;5213;53.548;9.930;2023-11-19T04:51:55;6.90;99.90
10336;DHT22;5213;53.548;9.930;2023-11-19T04:54:21;7.00;99.90
10336;DHT22;5213;53.548;9.930;2023-11-19T04:56:47;7.00;99.90
10336;DHT22;5213;53.548;9.930;2023-11-19T04:59:12;7.10;99.90
10336;DHT22;5213;53.548;9.930;2023-11-19T05:01:38;7.10;99.90
10336;DHT22;5213;53.548;9.930;2023-11-19T05:04:04;7.20;99.90
10336;DHT22;5213;53.548;9.930;2023-11-19T05:06:30;7.20;99.90
10336;DHT22;5213;53.548;9.930;2023-11-19T05:08:59;7.20;99.90
10336;DHT22;5213;53.548;9.930;2023-11-19T05:11:30;6.90;99.90
10336;DHT22;5213;53.548;9.930;2023-11-19T05:13:55;7.40;99.90
10336;DHT22;5213;53.548;9.930;2023-11-19T05:16:21;7.50;99.90
10336;DHT22;5213;53.548;9.930;2023-11-19T05:18:46;7.70;99.90
10336;DHT22;5213;53.548;9.930;2023-11-19T05:21:12;7.70;99.90
10336;DHT22;5213;53.548;9.930;2023-11-19T05:23:38;7.90;99.90
10336;DHT22;5213;53.548;9.930;2023-11-19T05:26:04;8.10;99.90
10336;DHT22;5213;53.548;9.930;2023-11-19T05:28:30;8.30;99.90
10336;DHT22;5213;53.548;9.930;2023-11-19T05:30:56;8.30;99.90
10336;DHT22;5213;53.548;9.930;2023-11-19T05:33:22;8.60;99.90
10336;DHT22;5213;53.548;9.930;2023-11-19T05:35:47;8.80;99.90
10336;DHT22;5213;53.548;9.930;2023-11-19T05:38:13;8.70;99.90
10336;DHT22;5213;53.548;9.930;2023-11-19T05:40:40;8.90;99.90
10336;DHT22;5213;53.548;9.930;2023-11-19T05:43:06;9.00;99.90
10336;DHT22;5213;53.548;9.930;2023-11-19T05:45:32;9.10;99.90
10336;DHT22;5213;53.548;9.930;2023-11-19T05:47:58;9.20;99.90
10336;DHT22;5213;53.548;9.930;2023-11-19T05:50:23;9.30;99.90
10336;DHT22;5213;53.548;9.930;2023-11-19T05:52:49;9.30;99.90
10336;DHT22;5213;53.548;9.930;2023-11-19T05:55:15;9.40;99.90
10336;DHT22;5213;53.548;9.930;2023-11-19T05:57:40;9.50;99.90
10336;DHT22;5213;53.548;9.930;2023-11-19T06:00:07;9.60;99.90
10336;DHT22;5213;53.548;9.930;2023-11-19T06:02:34;9.70;99.90
10336;DHT22;5213;53.548;9.930;2023-11-19T06:05:00;9.70;99.90
10336;DHT22;5213;53.548;9.930;2023-11-19T06:07:26;9.90;99.90
10336;DHT22;5213;53.548;9.930;2023-11-19T06:09:52;9.90;99.90
10336;DHT22;5213;53.548;9.930;2023-11-19T06:12:18;9.90;99.90
10336;DHT22;5213;53.548;9.930;2023-11-19T06:14:43;9.90;99.90
10336;DHT22;5213;53.548;9.930;2023-11-19T06:17:09;10.00;99.90
10336;DHT22;5213;53.548;9.930;2023-11-19T06:19:36;10.20;99.90
10336;DHT22;5213;53.548;9.930;2023-11-19T06:22:03;10.10;99.90
10336;DHT22;5213;53.548;9.930;2023-11-19T06:24:29;10.10;99.90
10336;DHT22;5213;53.548;9.930;2023-11-19T06:26:54;10.20;99.90
10336;DHT22;5213;53.548;9.930;2023-11-19T06:29:20;10.20;99.90
10336;DHT22;5213;53.548;9.930;2023-11-19T06:31:45;10.20;99.90
10336;DHT22;5213;53.548;9.930;2023-11-19T06:34:14;10.20;99.90
10336;DHT22;5213;53.548;9.930;2023-11-19T06:36:40;10.30;99.90
10336;DHT22;5213;53.548;9.930;2023-11-19T06:39:05;10.30;99.90
10336;DHT22;5213;53.548;9.930;2023-11-19T06:41:31;10.40;99.90
10336;DHT22;5213;53.548;9.930;2023-11-19T06:43:57;10.60;99.90
10336;DHT22;5213;53.548;9.930;2023-11-19T06:46:22;10.50;99.90
10336;DHT22;5213;53.548;9.930;2023-11-19T06:48:48;10.50;99.90
10336;DHT22;5213;53.548;9.930;2023-11-19T06:51:14;10.50;99.90
10336;DHT22;5213;53.548;9.930;2023-11-19T06:53:39;10.50;99.90
10336;DHT22;5213;53.548;9.930;2023-11-19T06:56:16;10.50;99.90
10336;DHT22;5213;53.548;9.930;2023-11-19T06:58:42;10.60;99.90
10336;DHT22;5213;53.548;9.930;2023-11-19T07:01:08;10.50;99.90
10336;DHT22;5213;53.548;9.930;2023-11-19T07:03:35;10.60;99.90
10336;DHT22;5213;53.548;9.930;2023-11-19T07:06:00;10.90;99.90
10336;DHT22;5213;53.548;9.930;2023-11-19T07:08:26;10.60;99.90
10336;DHT22;5213;53.548;9.930;2023-11-19T07:10:52;10.60;99.90
10336;DHT22;5213;53.548;9.930;2023-11-19T07:13:18;10.70;99.90
10336;DHT22;5213;53.548;9.930;2023-11-19T07:15:44;10.70;99.90
10336;DHT22;5213;53.548;9.930;2023-11-19T07:18:10;10.60;99.90
10336;DHT22;5213;53.548;9.930;2023-11-19T07:20:37;10.60;99.90
10336;DHT22;5213;53.548;9.930;2023-11-19T07:23:03;10.70;99.90
10336;DHT22;5213;53.548;9.930;2023-11-19T07:25:29;10.70;99.90
10336;DHT22;5213;53.548;9.930;2023-11-19T07:27:55;10.70;99.90
10336;DHT22;5213;53.548;9.930;2023-11-19T07:30:21;10.80;99.90
10336;DHT22;5213;53.548;9.930;2023-11-19T07:32:47;10.70;99.90
10336;DHT22;5213;53.548;9.930;2023-11-19T07:35:12;10.70;99.90
10336;DHT22;5213;53.548;9.930;2023-11-19T07:37:38;10.80;99.90
10336;DHT22;5213;53.548;9.930;2023-11-19T07:40:05;10.80;99.90
10336;DHT22;5213;53.548;9.930;2023-11-19T07:42:30;10.80;99.90
10336;DHT22;5213;53.548;9.930;2023-11-19T07:44:56;10.60;99.90
10336;DHT22;5213;53.548;9.930;2023-11-19T07:47:22;10.80;99.90
10336;DHT22;5213;53.548;9.930;2023-11-19T07:49:49;11.00;99.90
10336;DHT22;5213;53.548;9.930;2023-11-19T07:52:15;10.90;99.90
10336;DHT22;5213;53.548;9.930;2023-11-19T07:54:41;11.00;99.90
10336;DHT22;5213;53.548;9.930;2023-11-19T07:57:07;11.00;99.90
10336;DHT22;5213;53.548;9.930;2023-11-19T07:59:32;11.00;99.90
10336;DHT22;5213;53.548;9.930;2023-11-19T08:01:58;11.10;99.90
10336;DHT22;5213;53.548;9.930;2023-11-19T08:04:23;10.90;99.90
10336;DHT22;5213;53.548;9.930;2023-11-19T08:06:49;11.10;99.90
10336;DHT22;5213;53.548;9.930;2023-11-19T08:09:15;11.00;99.90
10336;DHT22;5213;53.548;9.930;2023-11-19T08:11:41;11.10;99.90
10336;DHT22;5213;53.548;9.930;2023-11-19T08:14:07;11.10;99.90
10336;DHT22;5213;53.548;9.930;2023-11-19T08:16:32;11.20;99.90
10336;DHT22;5213;53.548;9.930;2023-11-19T08:18:58;11.10;99.90
10336;DHT22;5213;53.548;9.930;2023-11-19T08:21:24;11.10;99.90
10336;DHT22;5213;53.548;9.930;2023-11-19T08:23:49;11.20;99.90
10336;DHT22;5213;53.548;9.930;2023-11-19T08:26:15;11.30;99.90
10336;DHT22;5213;53.548;9.930;2023-11-19T08:28:41;11.20;99.90
10336;DHT22;5213;53.548;9.930;2023-11-19T08:31:07;11.20;99.90
10336;DHT22;5213;53.548;9.930;2023-11-19T08:33:33;11.20;99.90
10336;DHT22;5213;53.548;9.930;2023-11-19T08:35:59;11.20;74.40
10336;DHT22;5213;53.548;9.930;2023-11-19T08:38:24;11.20;56.00
10336;DHT22;5213;53.548;9.930;2023-11-19T08:40:51;11.20;28.80
10336;DHT22;5213;53.548;9.930;2023-11-19T08:43:17;11.30;28.70
10336;DHT22;5213;53.548;9.930;2023-11-19T08:45:43;11.30;8.40
10336;DHT22;5213;53.548;9.930;2023-11-19T08:48:09;11.20;1.00
10336;DHT22;5213;53.548;9.930;2023-11-19T08:50:34;11.30;5.80
10336;DHT22;5213;53.548;9.930;2023-11-19T08:53:01;11.30;7.30
10336;DHT22;5213;53.548;9.930;2023-11-19T08:55:27;11.30;11.80
10336;DHT22;5213;53.548;9.930;2023-11-19T08:57:52;11.30;1.00
10336;DHT22;5213;53.548;9.930;2023-11-19T09:00:18;11.30;1.00
10336;DHT22;5213;53.548;9.930;2023-11-19T09:02:43;11.30;1.00
10336;DHT22;5213;53.548;9.930;2023-11-19T09:05:09;11.20;1.00
10336;DHT22;5213;53.548;9.930;2023-11-19T09:07:35;11.40;1.00
10336;DHT22;5213;53.548;9.930;2023-11-19T09:10:01;11.50;1.00
10336;DHT22;5213;53.548;9.930;2023-11-19T09:12:27;11.70;1.00
10336;DHT22;5213;53.548;9.930;2023-11-19T09:14:52;11.60;1.00
10336;DHT22;5213;53.548;9.930;2023-11-19T09:17:18;11.50;1.00
10336;DHT22;5213;53.548;9.930;2023-11-19T09:19:44;12.30;1.00
10336;DHT22;5213;53.548;9.930;2023-11-19T09:22:09;12.40;1.00
10336;DHT22;5213;53.548;9.930;2023-11-19T09:24:35;12.30;1.00
10336;DHT22;5213;53.548;9.930;2023-11-19T09:27:01;12.10;1.00
10336;DHT22;5213;53.548;9.930;2023-11-19T09:29:27;12.00;1.00
10336;DHT22;5213;53.548;9.930;2023-11-19T09:31:52;11.60;1.00
10336;DHT22;5213;53.548;9.930;2023-11-19T09:34:18;11.90;1.00
10336;DHT22;5213;53.548;9.930;2023-11-19T09:36:43;12.00;1.00
10336;DHT22;5213;53.548;9.930;2023-11-19T09:39:13;12.00;1.00
10336;DHT22;5213;53.548;9.930;2023-11-19T09:41:44;11.90;1.00
10336;DHT22;5213;53.548;9.930;2023-11-19T09:44:10;11.90;1.00
10336;DHT22;5213;53.548;9.930;2023-11-19T09:46:41;11.90;1.00
10336;DHT22;5213;53.548;9.930;2023-11-19T09:49:08;11.90;1.00
10336;DHT22;5213;53.548;9.930;2023-11-19T09:51:36;11.90;1.00
10336;DHT22;5213;53.548;9.930;2023-11-19T09:54:02;11.70;1.00
10336;DHT22;5213;53.548;9.930;2023-11-19T09:56:29;11.60;1.00
10336;DHT22;5213;53.548;9.930;2023-11-19T09:58:59;11.50;1.00
10336;DHT22;5213;53.548;9.930;2023-11-19T10:01:25;11.40;1.00
10336;DHT22;5213;53.548;9.930;2023-11-19T10:03:55;11.30;1.00
10336;DHT22;5213;53.548;9.930;2023-11-19T10:06:22;11.30;1.00
10336;DHT22;5213;53.548;9.930;2023-11-19T10:08:48;11.40;1.00
10336;DHT22;5213;53.548;9.930;2023-11-19T10:11:14;11.50;1.00
10336;DHT22;5213;53.548;9.930;2023-11-19T10:13:40;11.50;1.00
10336;DHT22;5213;53.548;9.930;2023-11-19T10:16:17;11.70;1.00
10336;DHT22;5213;53.548;9.930;2023-11-19T10:18:47;11.70;1.00
10336;DHT22;5213;53.548;9.930;2023-11-19T10:21:13;11.70;1.00
10336;DHT22;5213;53.548;9.930;2023-11-19T10:23:53;11.60;1.00
10336;DHT22;5213;53.548;9.930;2023-11-19T10:26:20;11.50;1.00
10336;DHT22;5213;53.548;9.930;2023-11-19T10:28:47;11.50;1.00
10336;DHT22;5213;53.548;9.930;2023-11-19T10:31:17;11.50;1.00
10336;DHT22;5213;53.548;9.930;2023-11-19T10:33:43;11.40;1.00
10336;DHT22;5213;53.548;9.930;2023-11-19T10:36:11;11.50;1.00
10336;DHT22;5213;53.548;9.930;2023-11-19T10:38:38;11.50;1.00
10336;DHT22;5213;53.548;9.930;2023-11-19T10:41:04;11.50;1.00
10336;DHT22;5213;53.548;9.930;2023-11-19T10:43:31;11.50;1.00
10336;DHT22;5213;53.548;9.930;2023-11-19T10:46:13;11.40;1.00
10336;DHT22;5213;53.548;9.930;2023-11-19T10:48:39;11.50;1.00
10336;DHT22;5213;53.548;9.930;2023-11-19T10:51:06;11.50;1.00
10336;DHT22;5213;53.548;9.930;2023-11-19T10:53:37;11.50;1.00
10336;DHT22;5213;53.548;9.930;2023-11-19T10:56:06;11.60;1.00
10336;DHT22;5213;53.548;9.930;2023-11-19T10:58:36;11.70;1.00
10336;DHT22;5213;53.548;9.930;2023-11-19T11:01:13;11.80;1.00
10336;DHT22;5213;53.548;9.930;2023-11-19T11:03:40;11.80;1.00
10336;DHT22;5213;53.548;9.930;2023-11-19T11:06:06;11.80;1.00
10336;DHT22;5213;53.548;9.930;2023-11-19T11:08:32;11.80;1.00
10336;DHT22;5213;53.548;9.930;2023-11-19T11:11:02;11.80;1.00
10336;DHT22;5213;53.548;9.930;2023-11-19T11:13:30;11.70;1.00
10336;DHT22;5213;53.548;9.930;2023-11-19T11:15:57;11.70;1.00
10336;DHT22;5213;53.548;9.930;2023-11-19T11:18:24;11.60;1.00
10336;DHT22;5213;53.548;9.930;2023-11-19T11:20:59;11.50;1.00
10336;DHT22;5213;53.548;9.930;2023-11-19T11:29:01;11.60;1.00
10336;DHT22;5213;53.548;9.930;2023-11-19T11:34:47;11.70;1.00
10336;DHT22;5213;53.548;9.930;2023-11-19T11:39:41;11.60;1.00
10336;DHT22;5213;53.548;9.930;2023-11-19T11:45:08;11.90;1.00
10336;DHT22;5213;53.548;9.930;2023-11-19T11:50:16;12.00;1.00
10336;DHT22;5213;53.548;9.930;2023-11-19T11:53:16;12.10;1.00
10336;DHT22;5213;53.548;9.930;2023-11-19T11:58:17;12.30;1.00
10336;DHT22;5213;53.548;9.930;2023-11-19T12:00:43;12.40;1.00
10336;DHT22;5213;53.548;9.930;2023-11-19T12:03:11;12.50;1.00
10336;DHT22;5213;53.548;9.930;2023-11-19T12:05:44;12.40;1.00
10336;DHT22;5213;53.548;9.930;2023-11-19T12:08:15;12.60;1.00
10336;DHT22;5213;53.548;9.930;2023-11-19T12:13:17;12.60;1.00
10336;DHT22;5213;53.548;9.930;2023-11-19T12:20:50;12.30;1.00
10336;DHT22;5213;53.548;9.930;2023-11-19T12:23:15;12.00;1.00
10336;DHT22;5213;53.548;9.930;2023-11-19T12:25:41;11.90;1.00
10336;DHT22;5213;53.548;9.930;2023-11-19T12:28:12;11.70;1.00
10336;DHT22;5213;53.548;9.930;2023-11-19T12:30:38;11.70;1.00
10336;DHT22;5213;53.548;9.930;2023-11-19T12:33:08;11.60;1.00
10336;DHT22;5213;53.548;9.930;2023-11-19T12:35:40;11.70;1.00
10336;DHT22;5213;53.548;9.930;2023-11-19T12:38:06;11.50;1.00
10336;DHT22;5213;53.548;9.930;2023-11-19T12:40:32;11.50;1.00
10336;DHT22;5213;53.548;9.930;2023-11-19T12:42:59;11.70;1.00
10336;DHT22;5213;53.548;9.930;2023-11-19T12:45:37;11.70;1.00
10336;DHT22;5213;53.548;9.930;2023-11-19T12:48:08;11.90;1.00
10336;DHT22;5213;53.548;9.930;2023-11-19T12:50:57;11.90;1.00
10336;DHT22;5213;53.548;9.930;2023-11-19T12:53:25;11.90;1.00
10336;DHT22;5213;53.548;9.930;2023-11-19T12:55:52;11.90;1.00
10336;DHT22;5213;53.548;9.930;2023-11-19T12:58:32;11.90;1.00
10336;DHT22;5213;53.548;9.930;2023-11-19T13:01:06;12.00;1.00
10336;DHT22;5213;53.548;9.930;2023-11-19T13:03:34;12.10;1.00
10336;DHT22;5213;53.548;9.930;2023-11-19T13:06:08;12.10;1.00
10336;DHT22;5213;53.548;9.930;2023-11-19T13:11:07;12.20;1.00
10336;DHT22;5213;53.548;9.930;2023-11-19T13:13:55;12.00;1.00
10336;DHT22;5213;53.548;9.930;2023-11-19T13:16:21;12.10;1.00
10336;DHT22;5213;53.548;9.930;2023-11-19T13:18:47;12.10;1.00
10336;DHT22;5213;53.548;9.930;2023-11-19T13:21:13;12.20;1.00
10336;DHT22;5213;53.548;9.930;2023-11-19T13:23:38;12.30;1.00
10336;DHT22;5213;53.548;9.930;2023-11-19T13:26:04;12.30;1.00
10336;DHT22;5213;53.548;9.930;2023-11-19T13:28:30;12.20;1.00
10336;DHT22;5213;53.548;9.930;2023-11-19T13:30:56;12.10;1.00
10336;DHT22;5213;53.548;9.930;2023-11-19T13:33:21;12.00;1.00
10336;DHT22;5213;53.548;9.930;2023-11-19T13:35:47;12.00;1.00
10336;DHT22;5213;53.548;9.930;2023-11-19T13:38:13;12.00;1.00
10336;DHT22;5213;53.548;9.930;2023-11-19T13:40:38;12.00;1.00
10336;DHT22;5213;53.548;9.930;2023-11-19T13:43:04;12.00;1.00
10336;DHT22;5213;53.548;9.930;2023-11-19T13:45:31;12.00;1.00
10336;DHT22;5213;53.548;9.930;2023-11-19T13:47:57;11.90;1.00
10336;DHT22;5213;53.548;9.930;2023-11-19T13:50:23;11.80;1.00
10336;DHT22;5213;53.548;9.930;2023-11-19T13:52:49;11.90;1.00
10336;DHT22;5213;53.548;9.930;2023-11-19T13:55:15;11.90;1.00
10336;DHT22;5213;53.548;9.930;2023-11-19T13:57:42;12.00;1.00
10336;DHT22;5213;53.548;9.930;2023-11-19T14:00:09;12.10;1.00
10336;DHT22;5213;53.548;9.930;2023-11-19T14:02:39;12.10;1.00
10336;DHT22;5213;53.548;9.930;2023-11-19T14:05:06;12.10;1.00
10336;DHT22;5213;53.548;9.930;2023-11-19T14:07:32;12.10;1.00
10336;DHT22;5213;53.548;9.930;2023-11-19T14:09:57;12.10;1.00
10336;DHT22;5213;53.548;9.930;2023-11-19T14:12:23;12.00;1.00
10336;DHT22;5213;53.548;9.930;2023-11-19T14:14:49;12.00;1.00
10336;DHT22;5213;53.548;9.930;2023-11-19T14:17:14;11.90;1.00
10336;DHT22;5213;53.548;9.930;2023-11-19T14:19:41;11.90;1.00
10336;DHT22;5213;53.548;9.930;2023-11-19T14:22:07;11.80;1.00
10336;DHT22;5213;53.548;9.930;2023-11-19T14:24:34;11.70;1.00
10336;DHT22;5213;53.548;9.930;2023-11-19T14:27:00;11.60;1.00
10336;DHT22;5213;53.548;9.930;2023-11-19T14:29:26;11.50;1.00
10336;DHT22;5213;53.548;9.930;2023-11-19T14:31:52;11.30;1.00
10336;DHT22;5213;53.548;9.930;2023-11-19T14:34:21;11.50;1.00
10336;DHT22;5213;53.548;9.930;2023-11-19T14:36:47;11.30;1.00
10336;DHT22;5213;53.548;9.930;2023-11-19T14:39:13;11.20;1.00
10336;DHT22;5213;53.548;9.930;2023-11-19T14:41:39;11.10;1.00
10336;DHT22;5213;53.548;9.930;2023-11-19T14:44:05;11.10;1.00
10336;DHT22;5213;53.548;9.930;2023-11-19T14:46:31;11.10;1.00
10336;DHT22;5213;53.548;9.930;2023-11-19T14:48:56;11.10;1.00
10336;DHT22;5213;53.548;9.930;2023-11-19T14:51:22;10.90;1.00
10336;DHT22;5213;53.548;9.930;2023-11-19T14:53:48;11.10;1.00
10336;DHT22;5213;53.548;9.930;2023-11-19T14:56:13;11.10;1.00
10336;DHT22;5213;53.548;9.930;2023-11-19T14:58:39;11.10;1.00
10336;DHT22;5213;53.548;9.930;2023-11-19T15:01:05;11.00;1.00
10336;DHT22;5213;53.548;9.930;2023-11-19T15:03:32;11.00;1.00
10336;DHT22;5213;53.548;9.930;2023-11-19T15:05:58;11.00;1.00
10336;DHT22;5213;53.548;9.930;2023-11-19T15:08:25;11.00;1.00
10336;DHT22;5213;53.548;9.930;2023-11-19T15:10:50;10.90;1.00
10336;DHT22;5213;53.548;9.930;2023-11-19T15:13:16;10.90;1.00
10336;DHT22;5213;53.548;9.930;2023-11-19T15:15:42;10.90;1.00
10336;DHT22;5213;53.548;9.930;2023-11-19T15:18:07;10.90;1.00
10336;DHT22;5213;53.548;9.930;2023-11-19T15:20:35;10.90;1.00
10336;DHT22;5213;53.548;9.930;2023-11-19T15:23:02;10.90;1.00
10336;DHT22;5213;53.548;9.930;2023-11-19T15:25:27;10.90;1.00
10336;DHT22;5213;53.548;9.930;2023-11-19T15:27:53;10.90;1.00
10336;DHT22;5213;53.548;9.930;2023-11-19T15:30:19;10.90;1.00
10336;DHT22;5213;53.548;9.930;2023-11-19T15:32:44;10.90;1.00
10336;DHT22;5213;53.548;9.930;2023-11-19T15:35:10;10.90;1.00
10336;DHT22;5213;53.548;9.930;2023-11-19T15:37:37;10.90;1.00
10336;DHT22;5213;53.548;9.930;2023-11-19T15:40:06;10.80;1.00
10336;DHT22;5213;53.548;9.930;2023-11-19T15:42:34;10.80;1.00
10336;DHT22;5213;53.548;9.930;2023-11-19T15:45:00;10.80;1.00
10336;DHT22;5213;53.548;9.930;2023-11-19T15:47:26;10.70;1.00
10336;DHT22;5213;53.548;9.930;2023-11-19T15:49:51;10.70;1.00
10336;DHT22;5213;53.548;9.930;2023-11-19T15:52:17;10.70;1.00
10336;DHT22;5213;53.548;9.930;2023-11-19T15:54:42;10.60;1.00
10336;DHT22;5213;53.548;9.930;2023-11-19T15:57:10;10.60;1.00
10336;DHT22;5213;53.548;9.930;2023-11-19T15:59:36;10.60;1.00
10336;DHT22;5213;53.548;9.930;2023-11-19T16:02:01;10.60;1.00
10336;DHT22;5213;53.548;9.930;2023-11-19T16:04:27;10.70;1.00
10336;DHT22;5213;53.548;9.930;2023-11-19T16:06:52;10.60;1.00
10336;DHT22;5213;53.548;9.930;2023-11-19T16:09:18;10.50;1.00
10336;DHT22;5213;53.548;9.930;2023-11-19T16:11:45;10.50;1.00
10336;DHT22;5213;53.548;9.930;2023-11-19T16:14:11;10.50;1.00
10336;DHT22;5213;53.548;9.930;2023-11-19T16:16:38;10.50;1.00
10336;DHT22;5213;53.548;9.930;2023-11-19T16:19:04;10.60;1.00
10336;DHT22;5213;53.548;9.930;2023-11-19T16:21:32;10.50;1.00
10336;DHT22;5213;53.548;9.930;2023-11-19T16:23:58;10.50;1.00
10336;DHT22;5213;53.548;9.930;2023-11-19T16:26:27;10.50;1.00